Glenn, CA (95943)

10:23 AM PDT on October 01, 2014 (GMT -0700)
CINQUINI ORCHARDS | Change Station
CLOSE
Current Station
Personal Weather Station
Location: WEST SIDE OF CHICO, CA
Elevation: 151 ft
Nearby Weather Stations

Elev 151 ft 39.68 °N, 121.86 °W | Updated 38 seconds ago

Clear
Clear
76.8 °F
Feels Like 77 °F
N
5.6
Wind Variable Wind from NW
Gusts 8.7 mph

Today
High -- | Low -- °F
--% Chance of Precip.
Yesterday
High -- | Low -- °F
Precip. -- in
7:04 AM 6:50 PM
Waxing Crescent, 49% visible
Pressure 29.98 in
Visibility 80.0 miles
Clouds Clear
Heat Index 77 °F
Dew Point 37 °F
Humidity 24%
Rainfall 0.00 in
Snow Depth 1 in , 0 in , 0 in
UV 3 out of 12
Pollen 5.90 out of 12
Ozone Good
Flu Activity Not available.
METAR KCIC 011647Z 31012KT 80SM SKC 20/04 A2998

More Conditions Fewer Conditions

Pressure 29.98 in
Visibility 80.0 miles
Clouds Clear
Heat Index 77 °F
Dew Point 37 °F
Humidity 24%
Rainfall 0.00 in
Snow Depth 1 in , 0 in , 0 in
UV 3 out of 12
Pollen 5.90 out of 12
Ozone Good
Flu Activity Not available.
METAR KCIC 011647Z 31012KT 80SM SKC 20/04 A2998

More Conditions Fewer Conditions

10-Day Weather Forecast

Almanac

Astronomy

Oct. 01, 2014 Rise Set
Actual Time 7:04 AM PDT 6:50 PM PDT
Civil Twilight 6:37 AM PDT 7:17 PM PDT
Nautical Twilight 6:06 AM PDT 7:48 PM PDT
Astronomical Twilight 5:34 AM PDT 8:19 PM PDT
Moon 2:09 PM PDT No Moon Set
Length of Visible Light 12h 39m
Length of Day
11h 46m
Tomorrow will be 2m 34s shorter.
Waxing Crescent, 49% of the Moon is Illuminated
Today
Waxing Crescent
Oct 1
First Quarter
Oct 8
Full
Oct 15
Last Quarter
Oct 23
New

Today's Extremes

State Highs State Lows

Community

WunderPhotos

Upload Photos

1,757,987 photos uploaded!

WunderBlogs® & News

By Dr. Jeff Masters
Director of Meteorology, Weather Underground
By Kari Strenfel
Meteorologist, Weather Underground
By Christopher C. Burt
Weather Historian, Weather Underground
October 1, 2014
October 1, 2014
October 1, 2014

Nearby

Air Quality

  Air Quality AQ Index Pollutant
Yesterday Good
PM2.5
Current Good
OZONE
Wednesday Moderate
OZONE
Thursday Moderate
OZONE
Friday Moderate
OZONE
Saturday Moderate
OZONE

Snow Depth

Station Depth Elevation
Tahoe City Cross 1 in 6750 ft
Echo Peak 0 in 7800 ft
Forestdale Creek 0 in 8029 ft
Leavitt Lake 0 in 9400 ft
Ebbetts Pass 1 in 8700 ft

Earthquake Activity

City Distance Mag. Time & Date
American Canyon, California 98 miles 2.5 12:17 AM PDT
2014-09-29
Minimum magnitude displayed is 2.5.

Coastal Water Temperatures

Place Temperature
No Stations Reporting

Nearby Weather Stations